createdAt,value
2016-05-13T00:00:45.214Z,984.76
2016-05-13T00:01:45.264Z,984.75
2016-05-13T00:02:45.282Z,984.76
2016-05-13T00:03:45.332Z,984.88
2016-05-13T00:04:45.381Z,984.9
2016-05-13T00:05:45.416Z,984.92
2016-05-13T00:06:45.496Z,984.93
2016-05-13T00:07:45.499Z,984.96
2016-05-13T00:08:45.564Z,984.96
2016-05-13T00:09:45.582Z,984.91
2016-05-13T00:10:45.616Z,984.9
2016-05-13T00:11:45.666Z,984.94
2016-05-13T00:12:45.700Z,984.89
2016-05-13T00:13:45.749Z,984.86
2016-05-13T00:14:45.783Z,984.84
2016-05-13T00:15:45.832Z,984.87
2016-05-13T00:16:45.867Z,984.85
2016-05-13T00:17:45.900Z,984.85
2016-05-13T00:18:45.950Z,984.87
2016-05-13T00:19:46.001Z,984.93
2016-05-13T00:20:46.034Z,984.89
2016-05-13T00:21:46.084Z,984.88
2016-05-13T00:22:46.117Z,984.85
2016-05-13T00:23:46.151Z,984.82
2016-05-13T00:24:46.201Z,984.78
2016-05-13T00:25:46.234Z,984.84
2016-05-13T00:26:46.284Z,984.85
2016-05-13T00:27:46.318Z,984.82
2016-05-13T00:28:46.352Z,984.85
2016-05-13T00:29:46.402Z,984.82
2016-05-13T00:30:46.436Z,984.86
2016-05-13T00:31:46.485Z,984.9
2016-05-13T00:32:46.520Z,984.82
2016-05-13T00:33:46.600Z,984.76
2016-05-13T00:34:46.603Z,984.74
2016-05-13T00:35:46.636Z,984.76
2016-05-13T00:36:46.686Z,984.78
2016-05-13T00:37:46.751Z,984.78
2016-05-13T00:38:46.769Z,984.8
2016-05-13T00:39:46.819Z,984.8
2016-05-13T00:40:46.853Z,984.78
2016-05-13T00:41:46.888Z,984.77
2016-05-13T00:42:46.937Z,984.76
2016-05-13T00:43:46.971Z,984.75
2016-05-13T00:44:47.051Z,984.74
2016-05-13T00:45:47.054Z,984.75
2016-05-13T00:46:47.088Z,984.78
2016-05-13T00:47:47.419Z,984.75
2016-05-13T00:48:47.187Z,984.74
2016-05-13T00:49:47.221Z,984.73
2016-05-13T00:50:47.254Z,984.73
2016-05-13T00:51:47.304Z,984.72
2016-05-13T00:52:47.339Z,984.69
2016-05-13T00:53:47.387Z,984.7
2016-05-13T00:54:47.423Z,984.7
2016-05-13T00:55:47.472Z,984.69
2016-05-13T00:56:47.506Z,984.68
2016-05-13T00:57:47.556Z,984.72
2016-05-13T00:58:47.589Z,984.69
2016-05-13T00:59:47.623Z,984.72
2016-05-13T01:00:47.672Z,984.71
2016-05-13T01:01:47.717Z,984.7
2016-05-13T01:02:48.170Z,984.7
2016-05-13T01:03:47.888Z,984.67
2016-05-13T01:04:47.980Z,984.66
2016-05-13T01:05:48.059Z,984.67
2016-05-13T01:06:48.175Z,984.66
2016-05-13T01:07:48.194Z,984.63
2016-05-13T01:08:48.260Z,984.6
2016-05-13T01:09:48.309Z,984.6
2016-05-13T01:10:48.358Z,984.58
2016-05-13T01:11:48.421Z,984.58
2016-05-13T01:12:48.460Z,984.61
2016-05-13T01:13:48.499Z,984.6
2016-05-13T01:14:48.555Z,984.59
2016-05-13T01:15:48.626Z,984.58
2016-05-13T01:16:48.648Z,984.58
2016-05-13T01:17:48.699Z,984.6
2016-05-13T01:18:48.736Z,984.52
2016-05-13T01:19:48.771Z,984.51
2016-05-13T01:20:48.823Z,984.47
2016-05-13T01:21:48.858Z,984.51
2016-05-13T01:22:48.909Z,984.5
2016-05-13T01:23:48.959Z,984.49
2016-05-13T01:24:48.978Z,984.5
2016-05-13T01:25:49.029Z,984.52
2016-05-13T01:26:49.078Z,984.55
2016-05-13T01:27:49.113Z,984.51
2016-05-13T01:28:49.194Z,984.51
2016-05-13T01:29:49.196Z,984.49
2016-05-13T01:30:49.232Z,984.5
2016-05-13T01:31:49.282Z,984.52
2016-05-13T01:32:49.315Z,984.47
2016-05-13T01:33:49.365Z,984.42
2016-05-13T01:34:49.398Z,984.42
2016-05-13T01:35:49.448Z,984.41
2016-05-13T01:36:49.483Z,984.43
2016-05-13T01:37:49.516Z,984.42
2016-05-13T01:38:49.566Z,984.45
2016-05-13T01:39:49.631Z,984.44
2016-05-13T01:40:49.649Z,984.42
2016-05-13T01:41:49.684Z,984.36
2016-05-13T01:42:49.732Z,984.33
2016-05-13T01:43:49.767Z,984.35
2016-05-13T01:44:49.801Z,984.36
2016-05-13T01:45:49.850Z,984.34
2016-05-13T01:46:49.931Z,984.34
2016-05-13T01:47:49.934Z,984.28
2016-05-13T01:48:49.968Z,984.34
2016-05-13T01:49:50.002Z,984.31
2016-05-13T01:50:50.051Z,984.31
2016-05-13T01:51:50.086Z,984.27
2016-05-13T01:52:50.134Z,984.27
2016-05-13T01:53:50.169Z,984.31
2016-05-13T01:54:50.202Z,984.28
2016-05-13T01:55:50.252Z,984.3
2016-05-13T01:56:50.286Z,984.27
2016-05-13T01:57:50.367Z,984.26
2016-05-13T01:58:50.370Z,984.29
2016-05-13T01:59:50.419Z,984.28
2016-05-13T02:00:50.453Z,984.28
2016-05-13T02:01:50.502Z,984.28
2016-05-13T02:02:50.536Z,984.25
2016-05-13T02:03:50.586Z,984.31
2016-05-13T02:04:50.621Z,984.31
2016-05-13T02:05:50.654Z,984.33
2016-05-13T02:06:50.704Z,984.3
2016-05-13T02:07:50.737Z,984.33
2016-05-13T02:08:50.803Z,984.33
2016-05-13T02:09:50.821Z,984.34
2016-05-13T02:10:50.855Z,984.35
2016-05-13T02:11:50.905Z,984.38
2016-05-13T02:12:50.938Z,984.33
2016-05-13T02:13:50.987Z,984.34
2016-05-13T02:14:51.022Z,984.33
2016-05-13T02:15:51.104Z,984.32
2016-05-13T02:16:51.106Z,984.36
2016-05-13T02:17:51.140Z,984.34
2016-05-13T02:18:51.189Z,984.33
2016-05-13T02:19:51.222Z,984.33
2016-05-13T02:20:51.256Z,984.34
2016-05-13T02:21:51.306Z,984.31
2016-05-13T02:22:51.340Z,984.36
2016-05-13T02:23:51.390Z,984.32
2016-05-13T02:24:51.424Z,984.31
2016-05-13T02:25:51.473Z,984.31
2016-05-13T02:26:51.539Z,984.3
2016-05-13T02:27:51.557Z,984.31
2016-05-13T02:28:51.591Z,984.29
2016-05-13T02:29:51.625Z,984.28
2016-05-13T02:30:51.675Z,984.3
2016-05-13T02:31:51.708Z,984.29
2016-05-13T02:32:51.774Z,984.3
2016-05-13T02:33:51.791Z,984.27
2016-05-13T02:34:51.841Z,984.31
2016-05-13T02:35:51.874Z,984.3
2016-05-13T02:36:51.909Z,984.3
2016-05-13T02:37:51.975Z,984.29
2016-05-13T02:38:51.993Z,984.33
2016-05-13T02:39:52.043Z,984.34
2016-05-13T02:40:52.076Z,984.37
2016-05-13T02:41:52.110Z,984.36
2016-05-13T02:42:52.160Z,984.32
2016-05-13T02:43:52.193Z,984.3
2016-05-13T02:44:52.274Z,984.27
2016-05-13T02:45:52.277Z,984.3
2016-05-13T02:46:52.311Z,984.28
2016-05-13T02:47:52.361Z,984.28
2016-05-13T02:48:52.395Z,984.27
2016-05-13T02:49:52.445Z,984.27
2016-05-13T02:50:52.479Z,984.24
2016-05-13T02:51:52.528Z,984.27
2016-05-13T02:52:52.561Z,984.24
2016-05-13T02:53:52.595Z,984.24
2016-05-13T02:54:52.630Z,984.23
2016-05-13T02:55:52.678Z,984.23
2016-05-13T02:56:52.729Z,984.19
2016-05-13T02:57:52.763Z,984.21
2016-05-13T02:58:52.797Z,984.19
2016-05-13T02:59:52.846Z,984.22
2016-05-13T03:00:52.880Z,984.22
2016-05-13T03:01:52.930Z,984.2
2016-05-13T03:02:53.307Z,984.2
2016-05-13T03:03:52.997Z,984.22
2016-05-13T03:04:53.047Z,984.18
2016-05-13T03:05:53.081Z,984.2
2016-05-13T03:06:53.115Z,984.19
2016-05-13T03:07:53.196Z,984.18
2016-05-13T03:08:53.199Z,984.16
2016-05-13T03:09:53.249Z,984.22
2016-05-13T03:10:53.282Z,984.21
2016-05-13T03:11:53.332Z,984.18
2016-05-13T03:12:53.365Z,984.17
2016-05-13T03:13:53.415Z,984.17
2016-05-13T03:14:53.449Z,984.22
2016-05-13T03:15:53.482Z,984.21
2016-05-13T03:16:53.517Z,984.22
2016-05-13T03:17:53.567Z,984.21
2016-05-13T03:18:53.615Z,984.22
2016-05-13T03:19:53.634Z,984.18
2016-05-13T03:20:53.699Z,984.22
2016-05-13T03:21:53.717Z,984.25
2016-05-13T03:22:53.768Z,984.28
2016-05-13T03:23:53.801Z,984.27
2016-05-13T03:24:53.851Z,984.3
2016-05-13T03:25:53.884Z,984.28
2016-05-13T03:26:53.919Z,984.28
2016-05-13T03:27:53.984Z,984.28
2016-05-13T03:28:54.002Z,984.29
2016-05-13T03:29:54.052Z,984.28
2016-05-13T03:30:54.086Z,984.27
2016-05-13T03:31:54.119Z,984.29
2016-05-13T03:32:54.169Z,984.28
2016-05-13T03:33:54.203Z,984.27
2016-05-13T03:34:54.253Z,984.29
2016-05-13T03:35:54.287Z,984.29
2016-05-13T03:36:54.336Z,984.25
2016-05-13T03:37:54.371Z,984.31
2016-05-13T03:38:54.419Z,984.3
2016-05-13T03:39:54.454Z,984.31
2016-05-13T03:40:54.487Z,984.27
2016-05-13T03:41:54.538Z,984.26
2016-05-13T03:42:54.571Z,984.29
2016-05-13T03:43:54.605Z,984.27
2016-05-13T03:44:54.655Z,984.27
2016-05-13T03:45:54.688Z,984.25
2016-05-13T03:46:54.723Z,984.24
2016-05-13T03:47:54.773Z,984.23
2016-05-13T03:48:54.806Z,984.26
2016-05-13T03:49:54.856Z,984.25
2016-05-13T03:50:54.890Z,984.28
2016-05-13T03:51:54.923Z,984.27
2016-05-13T03:52:54.973Z,984.25
2016-05-13T03:53:55.007Z,984.29
2016-05-13T03:54:55.042Z,984.31
2016-05-13T03:55:55.090Z,984.27
2016-05-13T03:56:55.125Z,984.27
2016-05-13T03:57:55.174Z,984.3
2016-05-13T03:58:55.208Z,984.32
2016-05-13T03:59:55.258Z,984.3
2016-05-13T04:00:55.291Z,984.31
2016-05-13T04:01:55.326Z,984.29
2016-05-13T04:02:55.375Z,984.26
2016-05-13T04:03:55.409Z,984.27
2016-05-13T04:04:55.443Z,984.3
2016-05-13T04:05:55.492Z,984.3
2016-05-13T04:06:55.541Z,984.33
2016-05-13T04:07:55.561Z,984.37
2016-05-13T04:08:55.610Z,984.4
2016-05-13T04:09:55.644Z,984.38
2016-05-13T04:10:55.709Z,984.39
2016-05-13T04:11:55.727Z,984.39
2016-05-13T04:12:55.777Z,984.36
2016-05-13T04:13:55.811Z,984.37
2016-05-13T04:14:55.860Z,984.37
2016-05-13T04:15:55.894Z,984.37
2016-05-13T04:16:55.928Z,984.32
2016-05-13T04:17:55.993Z,984.35
2016-05-13T04:18:56.027Z,984.31
2016-05-13T04:19:56.046Z,984.34
2016-05-13T04:20:56.096Z,984.32
2016-05-13T04:21:56.129Z,984.28
2016-05-13T04:22:56.179Z,984.32
2016-05-13T04:23:56.212Z,984.37
2016-05-13T04:24:56.247Z,984.32
2016-05-13T04:25:56.295Z,984.35
2016-05-13T04:26:56.331Z,984.36
2016-05-13T04:27:56.380Z,984.33
2016-05-13T04:28:56.414Z,984.31
2016-05-13T04:29:56.464Z,984.35
2016-05-13T04:30:56.497Z,984.37
2016-05-13T04:31:56.531Z,984.36
2016-05-13T04:32:56.580Z,984.35
2016-05-13T04:33:56.614Z,984.37
2016-05-13T04:34:56.649Z,984.38
2016-05-13T04:35:56.698Z,984.4
2016-05-13T04:36:56.732Z,984.45
2016-05-13T04:37:56.782Z,984.46
2016-05-13T04:38:56.816Z,984.49
2016-05-13T04:39:56.866Z,984.46
2016-05-13T04:40:56.899Z,984.52
2016-05-13T04:41:56.933Z,984.53
2016-05-13T04:42:56.982Z,984.54
2016-05-13T04:43:57.032Z,984.54
2016-05-13T04:44:57.065Z,984.54
2016-05-13T04:45:57.100Z,984.53
2016-05-13T04:46:57.150Z,984.54
2016-05-13T04:47:57.184Z,984.54
2016-05-13T04:48:57.232Z,984.53
2016-05-13T04:49:57.267Z,984.51
2016-05-13T04:50:57.300Z,984.48
2016-05-13T04:51:57.350Z,984.48
2016-05-13T04:52:57.385Z,984.48
2016-05-13T04:53:57.434Z,984.46
2016-05-13T04:54:57.467Z,984.5
2016-05-13T04:55:57.517Z,984.43
2016-05-13T04:56:57.551Z,984.41
2016-05-13T04:57:57.601Z,984.4
2016-05-13T04:58:57.635Z,984.4
2016-05-13T04:59:57.684Z,984.37
2016-05-13T05:00:57.750Z,984.37
2016-05-13T05:01:57.752Z,984.36
2016-05-13T05:02:57.817Z,984.4
2016-05-13T05:03:57.836Z,984.31
2016-05-13T05:04:57.870Z,984.29
2016-05-13T05:05:57.920Z,984.31
2016-05-13T05:06:57.969Z,984.27
2016-05-13T05:07:58.003Z,984.26
2016-05-13T05:08:58.036Z,984.32
2016-05-13T05:09:58.102Z,984.32
2016-05-13T05:10:58.120Z,984.24
2016-05-13T05:11:58.170Z,984.26
2016-05-13T05:12:58.204Z,984.29
2016-05-13T05:13:58.254Z,984.32
2016-05-13T05:14:58.288Z,984.3
2016-05-13T05:15:58.321Z,984.27
2016-05-13T05:16:58.371Z,984.33
2016-05-13T05:17:58.592Z,984.31
2016-05-13T05:18:58.454Z,984.32
2016-05-13T05:19:58.488Z,984.35
2016-05-13T05:20:58.538Z,984.35
2016-05-13T05:21:58.571Z,984.37
2016-05-13T05:22:58.621Z,984.41
2016-05-13T05:23:58.655Z,984.37
2016-05-13T05:24:58.705Z,984.39
2016-05-13T05:25:58.739Z,984.4
2016-05-13T05:26:58.804Z,984.39
2016-05-13T05:27:58.822Z,984.4
2016-05-13T05:28:58.856Z,984.39
2016-05-13T05:29:58.936Z,984.36
2016-05-13T05:30:58.939Z,984.33
2016-05-13T05:31:58.990Z,984.37
2016-05-13T05:32:59.023Z,984.34
2016-05-13T05:33:59.104Z,984.41
2016-05-13T05:34:59.106Z,984.41
2016-05-13T05:35:59.141Z,984.44
2016-05-13T05:36:59.191Z,984.43
2016-05-13T05:37:59.239Z,984.43
2016-05-13T05:38:59.274Z,984.41
2016-05-13T05:39:59.308Z,984.4
2016-05-13T05:40:59.358Z,984.41
2016-05-13T05:41:59.391Z,984.4
2016-05-13T05:42:59.441Z,984.41
2016-05-13T05:43:59.474Z,984.41
2016-05-13T05:44:59.587Z,984.36
2016-05-13T05:46:00.339Z,984.35
2016-05-13T05:46:59.670Z,984.33
2016-05-13T05:47:59.799Z,984.29
2016-05-13T05:48:59.691Z,984.33
2016-05-13T05:49:59.726Z,984.34
2016-05-13T05:50:59.774Z,984.35
2016-05-13T05:51:59.809Z,984.36
2016-05-13T05:52:59.859Z,984.35
2016-05-13T05:53:59.892Z,984.38
2016-05-13T05:54:59.942Z,984.36
2016-05-13T05:55:59.991Z,984.36
2016-05-13T05:57:00.010Z,984.35
2016-05-13T05:58:00.059Z,984.34
2016-05-13T05:59:00.093Z,984.36
2016-05-13T06:00:00.159Z,984.37
2016-05-13T06:01:00.176Z,984.34
2016-05-13T06:02:00.226Z,984.38
2016-05-13T06:03:00.260Z,984.4
2016-05-13T06:04:00.309Z,984.4
2016-05-13T06:05:00.344Z,984.41
2016-05-13T06:06:00.409Z,984.46
2016-05-13T06:07:00.427Z,984.45
2016-05-13T06:08:00.477Z,984.48
2016-05-13T06:09:00.511Z,984.46
2016-05-13T06:10:00.561Z,984.39
2016-05-13T06:11:00.610Z,984.39
2016-05-13T06:12:00.674Z,984.37
2016-05-13T06:13:00.802Z,984.37
2016-05-13T06:14:00.727Z,984.38
2016-05-13T06:15:00.761Z,984.43
2016-05-13T06:16:00.857Z,984.41
2016-05-13T06:17:00.876Z,984.41
2016-05-13T06:18:00.879Z,984.41
2016-05-13T06:19:00.929Z,984.38
2016-05-13T06:20:01.010Z,984.4
2016-05-13T06:21:01.012Z,984.38
2016-05-13T06:22:01.062Z,984.41
2016-05-13T06:23:01.096Z,984.43
2016-05-13T06:24:01.145Z,984.46
2016-05-13T06:25:01.210Z,984.45
2016-05-13T06:26:01.228Z,984.5
2016-05-13T06:27:01.262Z,984.52
2016-05-13T06:28:01.359Z,984.51
2016-05-13T06:29:01.362Z,984.51
2016-05-13T06:30:01.411Z,984.53
2016-05-13T06:31:01.429Z,984.52
2016-05-13T06:32:01.478Z,984.54
2016-05-13T06:33:02.654Z,984.56
2016-05-13T06:34:01.594Z,984.57
2016-05-13T06:35:01.596Z,984.61
2016-05-13T06:36:01.645Z,984.63
2016-05-13T06:37:01.914Z,984.64
2016-05-13T06:38:02.479Z,984.66
2016-05-13T06:39:02.654Z,984.63
2016-05-13T06:40:01.813Z,984.64
2016-05-13T06:41:01.862Z,984.65
2016-05-13T06:42:01.896Z,984.68
2016-05-13T06:43:03.025Z,984.65
2016-05-13T06:44:01.979Z,984.65
2016-05-13T06:45:02.841Z,984.65
2016-05-13T06:46:03.047Z,984.7
2016-05-13T06:47:02.113Z,984.71
2016-05-13T06:48:02.663Z,984.7
2016-05-13T06:49:02.196Z,984.7
2016-05-13T06:50:02.277Z,984.71
2016-05-13T06:51:02.404Z,984.72
2016-05-13T06:52:02.423Z,984.73
2016-05-13T06:53:02.520Z,984.68
2016-05-13T06:54:02.397Z,984.68
2016-05-13T06:55:02.446Z,984.66
2016-05-13T06:56:02.481Z,984.67
2016-05-13T06:57:03.062Z,984.7
2016-05-13T06:58:02.690Z,984.73
2016-05-13T06:59:02.832Z,984.75
2016-05-13T07:00:02.663Z,984.74
2016-05-13T07:01:02.745Z,984.71
2016-05-13T07:02:02.857Z,984.68
2016-05-13T07:03:02.781Z,984.77
2016-05-13T07:04:02.862Z,984.74
2016-05-13T07:05:02.895Z,984.74
2016-05-13T07:06:02.914Z,984.72
2016-05-13T07:07:03.323Z,984.73
2016-05-13T07:08:02.997Z,984.72
2016-05-13T07:09:03.047Z,984.75
2016-05-13T07:10:03.096Z,984.75
2016-05-13T07:11:03.303Z,984.73
2016-05-13T07:12:03.211Z,984.72
2016-05-13T07:13:03.213Z,984.73
2016-05-13T07:14:03.358Z,984.74
2016-05-13T07:15:03.438Z,984.76
2016-05-13T07:16:03.363Z,984.76
2016-05-13T07:17:03.506Z,984.77
2016-05-13T07:18:03.852Z,984.73
2016-05-13T07:19:03.495Z,984.75
2016-05-13T07:20:03.514Z,984.78
2016-05-13T07:21:03.595Z,984.76
2016-05-13T07:22:03.613Z,984.79
2016-05-13T07:23:03.663Z,984.82
2016-05-13T07:24:03.697Z,984.78
2016-05-13T07:25:04.434Z,984.77
2016-05-13T07:26:03.795Z,984.79
2016-05-13T07:27:03.830Z,984.8
2016-05-13T07:28:03.864Z,984.81
2016-05-13T07:29:03.913Z,984.78
2016-05-13T07:30:03.948Z,984.76
2016-05-13T07:31:03.997Z,984.8
2016-05-13T07:32:04.031Z,984.76
2016-05-13T07:33:04.643Z,984.75
2016-05-13T07:34:06.036Z,984.76
2016-05-13T07:35:04.179Z,984.71
2016-05-13T07:36:04.353Z,984.74
2016-05-13T07:37:04.638Z,984.76
2016-05-13T07:38:04.312Z,984.75
2016-05-13T07:39:04.347Z,984.73
2016-05-13T07:40:04.458Z,984.71
2016-05-13T07:41:04.461Z,984.72
2016-05-13T07:42:04.870Z,984.7
2016-05-13T07:43:04.576Z,984.7
2016-05-13T07:44:04.626Z,984.69
2016-05-13T07:45:04.613Z,984.7
2016-05-13T07:46:04.646Z,984.66
2016-05-13T07:47:04.961Z,984.66
2016-05-13T07:48:05.043Z,984.62
2016-05-13T07:49:04.842Z,984.64
2016-05-13T07:50:04.970Z,984.65
2016-05-13T07:51:04.863Z,984.63
2016-05-13T07:52:04.913Z,984.63
2016-05-13T07:53:04.947Z,984.64
2016-05-13T07:54:04.996Z,984.63
2016-05-13T07:55:05.046Z,984.64
2016-05-13T07:56:05.157Z,984.66
2016-05-13T07:57:05.129Z,984.73
2016-05-13T07:58:05.163Z,984.71
2016-05-13T07:59:05.213Z,984.7
2016-05-13T08:00:05.356Z,984.72
2016-05-13T08:01:05.312Z,984.67
2016-05-13T08:02:05.924Z,984.71
2016-05-13T08:03:05.817Z,984.75
2016-05-13T08:04:06.367Z,984.76
2016-05-13T08:05:06.119Z,984.71
2016-05-13T08:06:05.935Z,984.73
2016-05-13T08:07:06.047Z,984.69
2016-05-13T08:08:05.987Z,984.75
2016-05-13T08:09:06.240Z,984.72
2016-05-13T08:10:06.493Z,984.72
2016-05-13T08:11:05.745Z,984.7
2016-05-13T08:12:05.778Z,984.76
2016-05-13T08:13:05.828Z,984.77
2016-05-13T08:14:05.878Z,984.74
2016-05-13T08:15:05.912Z,984.75
2016-05-13T08:16:06.134Z,984.76
2016-05-13T08:17:05.996Z,984.72
2016-05-13T08:18:06.077Z,984.71
2016-05-13T08:19:06.095Z,984.74
2016-05-13T08:20:06.129Z,984.72
2016-05-13T08:21:06.178Z,984.69
2016-05-13T08:22:06.352Z,984.66
2016-05-13T08:23:06.263Z,984.66
2016-05-13T08:24:06.327Z,984.63
2016-05-13T08:25:06.376Z,984.68
2016-05-13T08:26:06.396Z,984.72
2016-05-13T08:27:06.444Z,984.68
2016-05-13T08:28:06.682Z,984.65
2016-05-13T08:29:06.621Z,984.64
2016-05-13T08:30:06.577Z,984.64
2016-05-13T08:31:06.643Z,984.63
2016-05-13T08:32:06.817Z,984.62
2016-05-13T08:33:06.710Z,984.63
2016-05-13T08:34:06.870Z,984.64
2016-05-13T08:35:06.950Z,984.64
2016-05-13T08:36:06.843Z,984.66
2016-05-13T08:37:06.878Z,984.63
2016-05-13T08:38:06.928Z,984.66
2016-05-13T08:39:07.134Z,984.66
2016-05-13T08:40:07.011Z,984.64
2016-05-13T08:41:07.061Z,984.64
2016-05-13T08:42:07.109Z,984.66
2016-05-13T08:43:07.222Z,984.66
2016-05-13T08:44:07.272Z,984.68
2016-05-13T08:45:07.242Z,984.62
2016-05-13T08:46:07.324Z,984.63
2016-05-13T08:47:07.670Z,984.63
2016-05-13T08:48:07.376Z,984.65
2016-05-13T08:49:07.488Z,984.69
2016-05-13T08:50:07.460Z,984.62
2016-05-13T08:51:07.524Z,984.64
2016-05-13T08:52:07.918Z,984.67
2016-05-13T08:53:07.889Z,984.67
2016-05-13T08:54:07.642Z,984.67
2016-05-13T08:55:07.691Z,984.66
2016-05-13T08:56:07.741Z,984.59
2016-05-13T08:57:07.807Z,984.6
2016-05-13T08:58:07.856Z,984.65
2016-05-13T08:59:07.890Z,984.65
2016-05-13T09:00:08.237Z,984.58
2016-05-13T09:01:11.271Z,984.64
2016-05-13T09:02:08.195Z,984.63
2016-05-13T09:03:08.416Z,984.66
2016-05-13T09:04:08.262Z,984.65
2016-05-13T09:05:08.781Z,984.63
2016-05-13T09:06:08.784Z,984.67
2016-05-13T09:07:08.598Z,984.68
2016-05-13T09:08:08.726Z,984.71
2016-05-13T09:09:08.620Z,984.72
2016-05-13T09:10:08.810Z,984.71
2016-05-13T09:11:08.812Z,984.7
2016-05-13T09:12:08.862Z,984.75
2016-05-13T09:13:08.881Z,984.74
2016-05-13T09:14:08.556Z,984.74
2016-05-13T09:15:08.605Z,984.74
2016-05-13T09:16:08.639Z,984.73
2016-05-13T09:17:08.688Z,984.73
2016-05-13T09:18:08.785Z,984.73
2016-05-13T09:19:08.788Z,984.74
2016-05-13T09:20:09.900Z,984.72
2016-05-13T09:21:08.871Z,984.75
2016-05-13T09:22:08.921Z,984.77
2016-05-13T09:23:09.314Z,984.8
2016-05-13T09:24:09.019Z,984.78
2016-05-13T09:25:09.054Z,984.78
2016-05-13T09:26:09.197Z,984.77
2016-05-13T09:27:09.153Z,984.77
2016-05-13T09:28:09.202Z,984.8
2016-05-13T09:29:09.330Z,984.8
2016-05-13T09:30:09.426Z,984.82
2016-05-13T09:31:09.382Z,984.77
2016-05-13T09:32:09.385Z,984.82
2016-05-13T09:33:09.435Z,984.79
2016-05-13T09:34:09.484Z,984.8
2016-05-13T09:35:09.534Z,984.84
2016-05-13T09:36:09.584Z,984.86
2016-05-13T09:37:09.632Z,984.86
2016-05-13T09:38:09.667Z,984.86
2016-05-13T09:39:09.856Z,984.87
2016-05-13T09:40:09.766Z,984.83
2016-05-13T09:41:09.815Z,984.81
2016-05-13T09:42:10.646Z,984.79
2016-05-13T09:43:09.898Z,984.78
2016-05-13T09:44:09.948Z,984.81
2016-05-13T09:45:09.998Z,984.8
2016-05-13T09:46:10.047Z,984.82
2016-05-13T09:47:10.550Z,984.84
2016-05-13T09:48:10.209Z,984.82
2016-05-13T09:49:10.180Z,984.77
2016-05-13T09:50:10.230Z,984.8
2016-05-13T09:51:10.295Z,984.86
2016-05-13T09:52:10.329Z,984.83
2016-05-13T09:53:10.379Z,984.83
2016-05-13T09:54:10.428Z,984.83
2016-05-13T09:55:10.587Z,984.84
2016-05-13T09:56:10.527Z,984.86
2016-05-13T09:57:10.561Z,984.88
2016-05-13T09:58:10.657Z,984.86
2016-05-13T09:59:10.692Z,984.89
2016-05-13T10:00:10.710Z,984.88
2016-05-13T10:01:10.760Z,984.87
2016-05-13T10:02:10.824Z,984.85
2016-05-13T10:03:11.140Z,984.87
2016-05-13T10:04:10.893Z,984.85
2016-05-13T10:05:10.942Z,984.86
2016-05-13T10:06:10.992Z,984.79
2016-05-13T10:07:11.151Z,984.82
2016-05-13T10:08:11.094Z,984.74
2016-05-13T10:09:11.234Z,984.83
2016-05-13T10:10:11.279Z,985.1
2016-05-13T10:11:11.387Z,985.35
2016-05-13T10:12:11.463Z,984.66
2016-05-13T10:13:11.544Z,984.67
2016-05-13T10:14:11.609Z,984.75
2016-05-13T10:15:11.658Z,985.26
2016-05-13T10:16:11.722Z,984.77
2016-05-13T10:17:11.788Z,984.77
2016-05-13T10:18:11.848Z,984.72
2016-05-13T10:19:11.903Z,984.75
2016-05-13T10:20:11.958Z,985.4
2016-05-13T10:21:12.013Z,984.71
2016-05-13T10:22:12.067Z,984.73
2016-05-13T10:23:12.137Z,984.76
2016-05-13T10:24:12.203Z,984.85
2016-05-13T10:25:12.224Z,984.86
2016-05-13T10:26:12.276Z,984.85
2016-05-13T10:27:12.328Z,984.74
2016-05-13T10:28:12.378Z,984.72
2016-05-13T10:29:12.429Z,984.7
2016-05-13T10:30:12.478Z,984.67
2016-05-13T10:31:12.575Z,984.81
2016-05-13T10:32:12.595Z,984.95
2016-05-13T10:33:12.646Z,984.71
2016-05-13T10:34:12.679Z,984.7
2016-05-13T10:35:12.729Z,984.67
2016-05-13T10:36:12.842Z,984.63
2016-05-13T10:37:12.830Z,984.66
2016-05-13T10:38:12.863Z,984.69
2016-05-13T10:39:12.913Z,984.74
2016-05-13T10:40:12.978Z,984.76
2016-05-13T10:41:13.012Z,984.66
2016-05-13T10:42:13.061Z,984.71
2016-05-13T10:43:13.127Z,984.63
2016-05-13T10:44:13.161Z,984.67
2016-05-13T10:45:13.226Z,984.65
2016-05-13T10:46:13.385Z,984.64
2016-05-13T10:47:13.668Z,984.66
2016-05-13T10:48:13.359Z,984.66
2016-05-13T10:49:13.737Z,984.65
2016-05-13T10:50:13.474Z,984.65
2016-05-13T10:51:13.586Z,984.58
2016-05-13T10:52:13.558Z,984.55
2016-05-13T10:53:13.591Z,984.58
2016-05-13T10:54:13.734Z,984.56
2016-05-13T10:55:13.674Z,984.6
2016-05-13T10:56:13.724Z,984.56
2016-05-13T10:57:13.773Z,984.6
2016-05-13T10:58:13.965Z,984.58
2016-05-13T10:59:13.889Z,984.55
2016-05-13T11:00:13.922Z,984.56
2016-05-13T11:01:13.956Z,984.54
2016-05-13T11:02:14.006Z,984.55
2016-05-13T11:03:14.056Z,984.54
2016-05-13T11:04:14.230Z,984.53
2016-05-13T11:05:14.155Z,984.53
2016-05-13T11:06:14.611Z,984.52
2016-05-13T11:07:14.238Z,984.51
2016-05-13T11:08:14.663Z,984.53
2016-05-13T11:09:14.337Z,984.48
2016-05-13T11:10:14.403Z,984.53
2016-05-13T11:11:14.421Z,984.5
2016-05-13T11:12:14.470Z,984.46
2016-05-13T11:13:14.520Z,984.48
2016-05-13T11:14:14.647Z,984.5
2016-05-13T11:15:14.603Z,984.49
2016-05-13T11:16:14.652Z,984.49
2016-05-13T11:17:14.702Z,984.46
2016-05-13T11:18:14.736Z,984.47
2016-05-13T11:19:14.802Z,984.46
2016-05-13T11:20:14.835Z,984.45
2016-05-13T11:21:14.885Z,984.42
2016-05-13T11:22:15.044Z,984.47
2016-05-13T11:23:15.375Z,984.5
2016-05-13T11:24:15.081Z,984.64
2016-05-13T11:25:15.099Z,984.89
2016-05-13T11:26:15.149Z,984.88
2016-05-13T11:27:15.198Z,984.93
2016-05-13T11:28:15.248Z,984.89
2016-05-13T11:29:15.266Z,984.91
2016-05-13T11:30:15.362Z,984.95
2016-05-13T11:31:15.365Z,984.92
2016-05-13T11:32:15.415Z,984.86
2016-05-13T11:33:15.464Z,984.93
2016-05-13T11:34:15.529Z,984.94
2016-05-13T11:35:15.595Z,984.93
2016-05-13T11:36:15.691Z,984.63
2016-05-13T11:37:15.741Z,984.93
2016-05-13T11:38:15.947Z,984.97
2016-05-13T11:39:15.856Z,984.85
2016-05-13T11:40:15.874Z,984.95
2016-05-13T11:41:15.955Z,984.93
2016-05-13T11:42:15.972Z,984.97
2016-05-13T11:43:16.038Z,984.98
2016-05-13T11:44:16.416Z,985
2016-05-13T11:45:16.152Z,984.49
2016-05-13T11:46:16.233Z,984.9
2016-05-13T11:47:16.268Z,984.4
2016-05-13T11:48:16.333Z,984.34
2016-05-13T11:49:16.539Z,984.34
2016-05-13T11:50:16.886Z,984.28
2016-05-13T11:51:16.529Z,984.29
2016-05-13T11:52:16.609Z,984.97
2016-05-13T11:53:16.612Z,985.02
2016-05-13T11:54:16.677Z,985.05
2016-05-13T11:55:16.805Z,985.06
2016-05-13T11:56:16.823Z,984.99
2016-05-13T11:57:16.904Z,985
2016-05-13T11:58:16.954Z,984.96
2016-05-13T11:59:16.987Z,985
2016-05-13T12:00:17.037Z,984.94
2016-05-13T12:01:17.101Z,984.97
2016-05-13T12:02:17.152Z,984.65
2016-05-13T12:03:17.217Z,984.92
2016-05-13T12:04:17.267Z,984.94
2016-05-13T12:05:17.332Z,984.94
2016-05-13T12:06:17.412Z,984.91
2016-05-13T12:07:17.447Z,984.91
2016-05-13T12:08:17.512Z,984.89
2016-05-13T12:09:17.561Z,984.85
2016-05-13T12:10:17.626Z,984.85
2016-05-13T12:11:17.723Z,984.81
2016-05-13T12:12:17.756Z,984.81
2016-05-13T12:13:17.822Z,984.79
2016-05-13T12:14:17.886Z,984.58
2016-05-13T12:15:17.952Z,984.54
2016-05-13T12:16:18.002Z,984.09
2016-05-13T12:17:18.067Z,984.52
2016-05-13T12:18:18.132Z,984.41
2016-05-13T12:19:18.197Z,984.38
2016-05-13T12:20:18.247Z,984.01
2016-05-13T12:21:18.344Z,984.45
2016-05-13T12:22:18.377Z,983.94
2016-05-13T12:23:18.443Z,983.91
2016-05-13T12:24:18.492Z,983.94
2016-05-13T12:25:18.574Z,984.54
2016-05-13T12:26:18.607Z,983.92
2016-05-13T12:27:18.672Z,983.89
2016-05-13T12:28:18.754Z,984.45
2016-05-13T12:29:18.802Z,984.45
2016-05-13T12:30:18.852Z,983.88
2016-05-13T12:31:18.902Z,983.91
2016-05-13T12:32:18.982Z,983.97